Time;durP1;ratioP1;P1;durP2;ratioP2;P2;SDS_P1;SDS_P2;PMS_P1;PMS_P2;Temp;Humidity;BMP_temperature;BMP_pressure;BME280_temperature;BME280_humidity;BME280_pressure;Samples;Min_cycle;Max_cycle;Signal;HPM_P1;HPM_P2
2022/10/25 00:01:28;;;;;;;15.30;6.60;;;13.40;99.90;;;;;;5021789;28;20280;-80
2022/10/25 00:03:56;;;;;;;15.40;6.10;;;13.50;99.90;;;;;;5027278;28;20273;-80
2022/10/25 00:06:23;;;;;;;13.33;6.30;;;13.00;99.90;;;;;;5021346;28;20299;-80
2022/10/25 00:08:50;;;;;;;14.33;6.83;;;13.10;99.90;;;;;;5017510;28;20865;-81
2022/10/25 00:11:21;;;;;;;16.57;7.30;;;13.50;99.90;;;;;;5024607;28;20233;-79
2022/10/25 00:13:52;;;;;;;11.57;6.60;;;13.50;99.90;;;;;;5016588;28;20619;-80
2022/10/25 00:16:22;;;;;;;14.53;7.57;;;13.50;99.90;;;;;;5024006;28;20211;-81
2022/10/25 00:18:49;;;;;;;17.73;8.33;;;13.60;99.90;;;;;;5014543;28;20317;-82
2022/10/25 00:21:17;;;;;;;22.53;8.90;;;13.50;99.90;;;;;;5022594;28;20214;-79
2022/10/25 00:23:45;;;;;;;19.00;11.00;;;13.60;99.90;;;;;;5012895;28;20233;-80
2022/10/25 00:26:12;;;;;;;22.03;11.13;;;13.40;99.90;;;;;;5049419;28;20313;-80
2022/10/25 00:28:39;;;;;;;20.13;10.83;;;13.60;99.90;;;;;;5019569;28;20255;-80
2022/10/25 00:31:09;;;;;;;19.30;11.00;;;13.60;99.90;;;;;;5019440;28;20206;-79
2022/10/25 00:33:37;;;;;;;23.93;11.93;;;13.60;99.90;;;;;;5028858;28;20228;-80
2022/10/25 00:36:08;;;;;;;20.53;12.20;;;13.50;99.90;;;;;;5019541;28;20574;-80
2022/10/25 00:38:38;;;;;;;23.30;11.77;;;13.60;99.90;;;;;;5025957;28;20217;-79
2022/10/25 00:41:05;;;;;;;22.20;11.30;;;13.60;99.90;;;;;;5023841;28;20603;-80
2022/10/25 00:43:36;;;;;;;25.20;11.77;;;13.60;99.90;;;;;;5022428;28;20232;-80
2022/10/25 00:46:13;;;;;;;24.47;12.20;;;13.70;99.90;;;;;;5013114;28;20206;-79
2022/10/25 00:48:43;;;;;;;22.37;13.37;;;13.70;99.90;;;;;;5022599;28;20619;-80
2022/10/25 00:51:10;;;;;;;19.97;12.40;;;13.70;99.90;;;;;;5019051;28;20203;-80
2022/10/25 00:53:37;;;;;;;22.77;12.10;;;13.80;99.90;;;;;;5032432;28;20530;-79
2022/10/25 00:56:15;;;;;;;23.53;12.97;;;13.80;99.90;;;;;;5021042;28;20213;-80
2022/10/25 00:58:48;;;;;;;23.47;11.97;;;13.90;99.90;;;;;;5018117;28;20209;-79
2022/10/25 01:01:15;;;;;;;23.33;11.70;;;13.90;99.90;;;;;;5019727;28;20305;-80
2022/10/25 01:03:44;;;;;;;22.87;12.27;;;13.90;99.90;;;;;;5024234;28;20213;-78
2022/10/25 01:06:22;;;;;;;24.00;11.63;;;14.60;99.90;;;;;;5024217;28;20238;-79
2022/10/25 01:08:51;;;;;;;17.40;11.10;;;13.90;99.90;;;;;;5025519;28;20209;-81
2022/10/25 01:11:19;;;;;;;19.10;10.80;;;13.80;99.90;;;;;;5026032;28;20201;-80
2022/10/25 01:13:47;;;;;;;18.17;10.00;;;14.00;99.90;;;;;;5024294;28;20216;-81
2022/10/25 01:16:33;;;;;;;21.60;10.93;;;14.20;99.90;;;;;;5019632;28;20293;-79
2022/10/25 01:19:21;;;;;;;20.03;11.07;;;14.10;99.90;;;;;;5016010;28;20403;-82
2022/10/25 01:21:51;;;;;;;18.40;10.47;;;14.10;99.90;;;;;;5022892;28;20229;-80
2022/10/25 01:24:33;;;;;;;23.30;11.07;;;14.10;99.90;;;;;;5020129;28;20716;-79
2022/10/25 01:27:19;;;;;;;22.00;11.03;;;14.20;99.90;;;;;;5017125;28;20210;-78
2022/10/25 01:30:14;;;;;;;26.23;11.23;;;14.10;99.90;;;;;;5025457;28;20581;-79
2022/10/25 01:32:54;;;;;;;21.97;10.47;;;14.10;99.90;;;;;;5022007;28;20300;-79
2022/10/25 01:35:31;;;;;;;18.47;9.80;;;14.10;99.90;;;;;;5022400;28;20260;-79
2022/10/25 01:38:06;;;;;;;20.30;9.83;;;14.10;99.90;;;;;;5028234;28;20228;-79
2022/10/25 01:40:57;;;;;;;21.60;9.57;;;14.10;99.90;;;;;;5020122;28;20205;-80
2022/10/25 01:43:45;;;;;;;18.23;9.63;;;14.20;99.90;;;;;;5019378;28;20326;-80
2022/10/25 01:46:35;;;;;;;19.87;10.23;;;14.20;99.90;;;;;;5020669;28;20210;-80
2022/10/25 01:49:11;;;;;;;20.17;9.07;;;14.10;99.90;;;;;;5017168;28;20313;-80
2022/10/25 01:51:37;;;;;;;20.37;10.27;;;14.20;99.90;;;;;;5025435;28;20300;-81
2022/10/25 01:54:23;;;;;;;20.77;9.77;;;14.20;99.90;;;;;;5019491;28;20626;-78
2022/10/25 01:57:05;;;;;;;18.97;10.60;;;14.20;99.90;;;;;;5021593;28;20220;-80
2022/10/25 02:00:10;;;;;;;22.47;10.23;;;14.20;99.90;;;;;;5025800;28;20620;-79
2022/10/25 02:02:42;;;;;;;17.73;10.17;;;14.30;99.90;;;;;;5021146;28;20233;-78
2022/10/25 02:05:30;;;;;;;22.00;10.67;;;14.30;99.90;;;;;;5027456;28;20229;-79
2022/10/25 02:08:23;;;;;;;23.23;9.90;;;14.30;99.90;;;;;;5037068;28;20976;-79
2022/10/25 02:11:05;;;;;;;23.63;10.37;;;14.40;99.90;;;;;;5023786;28;20213;-80
2022/10/25 02:13:59;;;;;;;21.37;9.70;;;14.40;99.90;;;;;;5019839;28;20300;-79
2022/10/25 02:16:33;;;;;;;19.40;9.90;;;14.40;99.90;;;;;;5020418;28;20205;-78
2022/10/25 02:19:05;;;;;;;22.33;10.10;;;14.50;99.90;;;;;;5017917;28;20709;-79
2022/10/25 02:21:34;;;;;;;18.97;9.70;;;14.40;99.90;;;;;;5034117;28;20247;-78
2022/10/25 02:24:08;;;;;;;19.40;10.00;;;14.50;99.90;;;;;;5027668;28;20242;-77
2022/10/25 02:26:35;;;;;;;20.17;9.33;;;14.60;99.90;;;;;;5022188;28;20681;-80
2022/10/25 02:29:03;;;;;;;20.63;10.40;;;14.60;99.90;;;;;;5028284;28;20206;-79
2022/10/25 02:31:34;;;;;;;18.43;10.50;;;14.50;99.90;;;;;;5021976;28;20213;-79
2022/10/25 02:34:04;;;;;;;22.43;10.03;;;14.50;99.90;;;;;;5029153;28;20263;-80
2022/10/25 02:36:31;;;;;;;21.20;10.90;;;14.50;99.90;;;;;;5021491;28;20279;-78
2022/10/25 02:38:59;;;;;;;19.30;10.67;;;14.50;99.90;;;;;;5031671;28;20210;-79
2022/10/25 02:41:26;;;;;;;21.97;9.73;;;14.50;99.90;;;;;;5027862;28;20753;-79
2022/10/25 02:43:53;;;;;;;21.97;10.50;;;14.40;99.90;;;;;;5029392;28;20239;-80
2022/10/25 02:46:22;;;;;;;23.67;10.93;;;14.50;99.90;;;;;;5021543;28;20302;-79
2022/10/25 02:48:49;;;;;;;23.63;9.90;;;14.50;99.90;;;;;;5009745;28;20225;-79
2022/10/25 02:51:17;;;;;;;17.97;10.17;;;14.50;99.90;;;;;;5023190;28;20211;-79
2022/10/25 02:53:44;;;;;;;23.30;9.87;;;14.60;99.90;;;;;;5012577;28;20718;-79
2022/10/25 02:56:14;;;;;;;20.73;10.03;;;14.60;99.90;;;;;;5028311;28;20380;-78
2022/10/25 02:58:42;;;;;;;21.03;9.97;;;14.60;99.90;;;;;;5024835;28;20346;-80
2022/10/25 03:01:10;;;;;;;18.20;9.57;;;14.70;99.90;;;;;;5016949;28;20225;-80
2022/10/25 03:03:37;;;;;;;20.83;9.33;;;14.70;99.90;;;;;;5026766;28;20222;-80
2022/10/25 03:06:04;;;;;;;27.60;11.03;;;14.70;99.90;;;;;;5023436;28;20217;-80
2022/10/25 03:08:31;;;;;;;24.67;10.00;;;14.70;99.90;;;;;;5026161;28;20677;-79
2022/10/25 03:10:59;;;;;;;19.93;9.43;;;14.70;99.90;;;;;;5027198;28;20641;-79
2022/10/25 03:13:26;;;;;;;19.23;9.53;;;14.80;99.90;;;;;;5053532;28;20317;-80
2022/10/25 03:15:53;;;;;;;20.70;8.50;;;14.80;99.90;;;;;;5029132;28;20713;-80
2022/10/25 03:18:21;;;;;;;20.00;9.37;;;14.80;99.90;;;;;;5024323;28;20206;-81
2022/10/25 03:20:48;;;;;;;20.98;9.07;;;15.70;99.90;;;;;;5024160;28;20230;-80
2022/10/25 03:23:15;;;;;;;21.23;9.00;;;14.60;99.90;;;;;;5019708;28;20231;-80
2022/10/25 03:25:42;;;;;;;24.57;9.23;;;15.40;99.90;;;;;;5022179;28;20246;-79
2022/10/25 03:28:09;;;;;;;21.42;9.32;;;14.70;99.90;;;;;;5028085;28;20205;-78
2022/10/25 03:30:43;;;;;;;24.08;10.10;;;15.20;99.90;;;;;;5023067;28;20253;-78
2022/10/25 03:33:11;;;;;;;23.92;9.30;;;14.80;99.90;;;;;;5028667;28;20582;-79
2022/10/25 03:35:39;;;;;;;18.47;8.10;;;16.30;99.90;;;;;;5031500;28;20227;-81
2022/10/25 03:38:09;;;;;;;17.87;8.17;;;14.90;99.90;;;;;;5029514;28;20236;-80
2022/10/25 03:40:36;;;;;;;22.87;8.90;;;14.60;99.90;;;;;;5028442;28;20216;-81
2022/10/25 03:43:03;;;;;;;17.50;7.93;;;15.10;99.90;;;;;;5033267;28;20221;-78
2022/10/25 03:45:30;;;;;;;25.27;7.87;;;14.90;99.90;;;;;;5049671;28;20212;-81
2022/10/25 03:47:56;;;;;;;20.67;7.77;;;14.90;99.90;;;;;;5021975;28;20259;-79
2022/10/25 03:50:23;;;;;;;20.63;8.40;;;15.00;99.90;;;;;;5024404;28;20225;-79
2022/10/25 03:52:50;;;;;;;23.70;8.50;;;14.80;99.90;;;;;;5023435;28;20210;-79
2022/10/25 03:55:17;;;;;;;18.80;7.63;;;14.80;99.90;;;;;;5021382;28;20328;-78
2022/10/25 03:57:44;;;;;;;17.17;7.43;;;14.80;99.90;;;;;;5023869;28;20305;-79
2022/10/25 04:00:12;;;;;;;19.13;7.87;;;14.70;99.90;;;;;;5023554;28;20210;-81
2022/10/25 04:02:39;;;;;;;17.40;7.60;;;14.70;99.90;;;;;;5022948;28;20347;-80
2022/10/25 04:05:08;;;;;;;21.83;7.57;;;14.70;99.90;;;;;;5026012;28;20218;-80
2022/10/25 04:07:35;;;;;;;15.70;7.53;;;14.70;99.90;;;;;;5019780;28;20342;-79
2022/10/25 04:10:03;;;;;;;24.77;7.57;;;14.70;99.90;;;;;;5024791;28;20255;-80
2022/10/25 04:12:30;;;;;;;24.43;8.60;;;14.80;99.90;;;;;;5028381;28;20212;-82
2022/10/25 04:15:02;;;;;;;20.13;7.43;;;14.70;99.90;;;;;;5030739;28;20582;-80
2022/10/25 04:17:29;;;;;;;18.30;7.70;;;14.60;99.90;;;;;;5021975;28;20220;-80
2022/10/25 04:19:56;;;;;;;19.77;7.83;;;14.90;99.90;;;;;;5026927;28;20291;-82
2022/10/25 04:22:23;;;;;;;21.80;8.07;;;14.70;99.90;;;;;;5030577;28;20383;-80
2022/10/25 04:24:50;;;;;;;15.77;7.23;;;14.20;99.90;;;;;;5023377;28;20209;-80
2022/10/25 04:27:17;;;;;;;18.63;8.23;;;14.70;99.90;;;;;;5022390;28;20225;-80
2022/10/25 04:29:44;;;;;;;18.87;7.27;;;14.70;99.90;;;;;;5021430;28;20742;-81
2022/10/25 04:32:11;;;;;;;18.60;8.30;;;14.70;99.90;;;;;;5019703;28;20206;-81
2022/10/25 04:34:38;;;;;;;22.80;7.30;;;14.70;99.90;;;;;;5029810;28;20247;-80
2022/10/25 04:37:05;;;;;;;17.87;7.40;;;15.50;99.90;;;;;;5020538;28;20293;-79
2022/10/25 04:39:32;;;;;;;20.73;7.90;;;15.10;99.90;;;;;;5024702;28;20968;-80
2022/10/25 04:42:00;;;;;;;24.77;8.43;;;14.70;99.90;;;;;;5023215;28;20224;-80
2022/10/25 04:44:26;;;;;;;23.50;7.17;;;14.70;99.90;;;;;;5020454;28;20220;-82
2022/10/25 04:46:53;;;;;;;24.70;7.30;;;14.30;99.90;;;;;;5022634;28;20206;-81
2022/10/25 04:49:20;;;;;;;25.37;8.00;;;15.30;99.90;;;;;;5024936;28;20711;-81
2022/10/25 04:51:50;;;;;;;20.00;7.70;;;14.70;99.90;;;;;;5023957;28;20243;-80
2022/10/25 04:54:17;;;;;;;21.53;7.13;;;14.70;99.90;;;;;;5032542;28;20220;-81
2022/10/25 04:56:43;;;;;;;20.33;7.83;;;14.70;99.90;;;;;;5025943;28;20213;-81
2022/10/25 04:59:11;;;;;;;20.53;7.33;;;14.70;99.90;;;;;;5024234;28;20297;-81
2022/10/25 05:01:38;;;;;;;18.83;7.20;;;14.70;99.90;;;;;;5047851;28;20283;-79
2022/10/25 05:04:05;;;;;;;17.77;8.90;;;14.70;99.90;;;;;;5023645;28;20315;-80
2022/10/25 05:06:31;;;;;;;21.53;7.97;;;14.60;99.90;;;;;;5018346;28;20237;-81
2022/10/25 05:08:58;;;;;;;17.23;7.40;;;14.60;99.90;;;;;;5020632;28;20649;-81
2022/10/25 05:11:25;;;;;;;19.73;7.60;;;14.80;99.90;;;;;;5027811;28;20217;-79
2022/10/25 05:13:52;;;;;;;21.33;8.57;;;14.80;99.90;;;;;;5022385;28;20572;-80
2022/10/25 05:16:22;;;;;;;21.17;8.00;;;14.70;99.90;;;;;;5026694;28;20319;-79
2022/10/25 05:18:53;;;;;;;21.07;8.70;;;14.80;99.90;;;;;;5020627;28;20218;-80
2022/10/25 05:21:21;;;;;;;18.27;8.63;;;14.70;99.90;;;;;;5029193;28;20292;-80
2022/10/25 05:23:59;;;;;;;20.07;8.03;;;14.60;99.90;;;;;;5025738;28;20256;-80
2022/10/25 05:26:28;;;;;;;24.47;9.37;;;14.60;99.90;;;;;;5027713;28;20286;-80
2022/10/25 05:28:55;;;;;;;21.17;9.00;;;14.40;99.90;;;;;;5019084;28;20214;-80
2022/10/25 05:31:28;;;;;;;17.07;7.87;;;14.70;99.90;;;;;;5020213;28;20209;-80
2022/10/25 05:33:57;;;;;;;19.90;8.90;;;14.50;99.90;;;;;;5025791;28;20232;-79
2022/10/25 05:36:25;;;;;;;19.40;8.03;;;14.50;99.90;;;;;;5017360;28;20267;-78
2022/10/25 05:38:51;;;;;;;16.43;7.87;;;14.60;99.90;;;;;;5023946;28;20282;-79
2022/10/25 05:41:18;;;;;;;19.73;8.77;;;14.60;99.90;;;;;;5027571;28;20201;-80
2022/10/25 05:43:46;;;;;;;18.60;8.30;;;14.60;99.90;;;;;;5022317;28;20257;-79
2022/10/25 05:46:15;;;;;;;17.83;8.43;;;14.60;99.90;;;;;;5028191;28;20229;-78
2022/10/25 05:48:43;;;;;;;19.77;9.67;;;14.70;99.90;;;;;;5018984;28;20216;-79
2022/10/25 05:51:20;;;;;;;21.93;9.60;;;14.60;99.90;;;;;;5023990;28;20216;-81
2022/10/25 05:54:05;;;;;;;21.43;9.60;;;14.50;99.90;;;;;;5021516;28;20388;-79
2022/10/25 05:56:34;;;;;;;23.20;10.43;;;14.50;99.90;;;;;;5024139;28;20209;-80
2022/10/25 05:59:07;;;;;;;22.93;10.03;;;14.40;99.90;;;;;;5026836;28;20217;-79
2022/10/25 06:01:39;;;;;;;20.98;12.15;;;14.40;99.90;;;;;;5027488;28;21011;-76
2022/10/25 06:04:07;;;;;;;25.53;11.67;;;14.50;99.90;;;;;;5034181;28;20236;-78
2022/10/25 06:06:35;;;;;;;25.00;11.07;;;14.40;99.90;;;;;;5022916;28;20726;-84
2022/10/25 06:09:04;;;;;;;25.13;11.90;;;14.50;99.90;;;;;;5023407;28;20272;-84
2022/10/25 06:11:33;;;;;;;29.50;11.83;;;14.80;99.90;;;;;;5031450;28;20201;-83
2022/10/25 06:13:59;;;;;;;20.60;11.77;;;14.30;99.90;;;;;;5031273;28;20561;-83
2022/10/25 06:16:27;;;;;;;26.87;13.13;;;14.30;99.90;;;;;;5134487;22;20235;-81
2022/10/25 06:18:53;;;;;;;24.77;12.33;;;14.80;99.90;;;;;;5014698;28;20799;-84
2022/10/25 06:21:29;;;;;;;20.13;11.27;;;16.00;99.90;;;;;;5023651;28;20206;-81
2022/10/25 06:23:58;;;;;;;22.83;11.53;;;14.40;99.90;;;;;;5021110;28;20283;-82
2022/10/25 06:26:27;;;;;;;24.80;13.30;;;14.40;99.90;;;;;;5022543;28;20667;-82
2022/10/25 06:28:59;;;;;;;22.03;12.30;;;14.40;99.90;;;;;;5020792;28;20194;-82
2022/10/25 06:31:27;;;;;;;22.87;12.53;;;14.40;99.90;;;;;;5011406;28;20717;-82
2022/10/25 06:33:54;;;;;;;21.40;12.23;;;14.40;99.90;;;;;;5010230;28;20233;-81
2022/10/25 06:36:22;;;;;;;20.20;11.93;;;14.70;99.90;;;;;;5024838;28;20297;-82
2022/10/25 06:38:50;;;;;;;19.87;12.00;;;14.50;99.90;;;;;;5019623;28;20372;-82
2022/10/25 06:41:19;;;;;;;22.83;12.07;;;14.90;99.90;;;;;;5010386;28;20210;-82
2022/10/25 06:43:46;;;;;;;19.80;12.07;;;14.40;99.90;;;;;;5011652;28;20276;-81
2022/10/25 06:46:31;;;;;;;24.17;12.90;;;14.40;99.90;;;;;;5024444;28;20273;-81
2022/10/25 06:49:00;;;;;;;21.20;10.97;;;14.50;99.90;;;;;;5023148;28;20309;-82
2022/10/25 06:51:28;;;;;;;19.70;11.53;;;14.50;99.90;;;;;;5019822;28;20210;-79
2022/10/25 06:53:56;;;;;;;19.33;12.13;;;14.50;99.90;;;;;;5023202;28;20220;-80
2022/10/25 06:56:25;;;;;;;22.03;12.00;;;14.90;99.90;;;;;;5022264;28;20220;-82
2022/10/25 06:58:52;;;;;;;24.47;12.40;;;14.50;99.90;;;;;;5024171;28;20285;-81
2022/10/25 07:01:20;;;;;;;17.50;11.53;;;14.50;99.90;;;;;;5026706;28;20201;-81
2022/10/25 07:03:49;;;;;;;23.30;11.53;;;14.60;99.90;;;;;;5020775;28;20744;-82
2022/10/25 07:06:21;;;;;;;23.77;11.77;;;14.60;99.90;;;;;;5020732;28;20199;-81
2022/10/25 07:08:55;;;;;;;23.10;12.00;;;14.90;99.90;;;;;;5017402;28;20201;-82
2022/10/25 07:11:24;;;;;;;19.27;11.17;;;14.60;99.90;;;;;;5007119;28;20656;-82
2022/10/25 07:13:51;;;;;;;19.60;11.70;;;14.60;99.90;;;;;;5011802;28;20324;-81
2022/10/25 07:16:20;;;;;;;21.23;10.93;;;15.10;99.90;;;;;;5022539;28;20194;-81
2022/10/25 07:18:47;;;;;;;20.87;11.90;;;15.10;99.90;;;;;;5022772;28;20795;-82
2022/10/25 07:21:18;;;;;;;20.83;11.77;;;14.90;99.90;;;;;;5011686;28;20390;-81
2022/10/25 07:23:46;;;;;;;25.93;11.80;;;14.70;99.90;;;;;;5021835;28;20348;-81
2022/10/25 07:26:20;;;;;;;16.57;10.87;;;14.70;99.90;;;;;;5021707;28;20293;-82
2022/10/25 07:28:48;;;;;;;16.57;10.63;;;14.40;99.90;;;;;;5018038;28;20240;-82
2022/10/25 07:31:18;;;;;;;17.63;11.57;;;14.80;99.90;;;;;;5010423;28;20296;-79
2022/10/25 07:33:46;;;;;;;17.97;10.60;;;14.70;99.90;;;;;;5017295;28;20289;-83
2022/10/25 07:36:13;;;;;;;20.43;10.90;;;14.70;99.90;;;;;;5021283;28;20237;-80
2022/10/25 07:38:40;;;;;;;18.97;11.33;;;14.70;99.90;;;;;;5004535;28;20204;-81
2022/10/25 07:41:07;;;;;;;16.23;10.40;;;14.70;99.90;;;;;;5022589;28;20214;-81
2022/10/25 07:43:34;;;;;;;19.27;10.90;;;14.70;99.90;;;;;;5023023;28;20326;-81
2022/10/25 07:46:01;;;;;;;18.73;10.93;;;14.60;99.90;;;;;;5024655;28;20686;-80
2022/10/25 07:48:28;;;;;;;19.07;10.87;;;14.70;99.90;;;;;;5020594;28;20575;-81
2022/10/25 07:50:58;;;;;;;20.37;11.40;;;14.70;99.90;;;;;;5022658;28;20581;-81
2022/10/25 07:53:25;;;;;;;13.15;11.02;;;14.80;99.90;;;;;;5020482;28;20836;-82
2022/10/25 07:55:54;;;;;;;15.07;11.10;;;14.80;99.90;;;;;;5019857;28;20207;-81
2022/10/25 07:58:21;;;;;;;15.27;9.52;;;15.60;99.90;;;;;;5022608;28;20256;-81
2022/10/25 08:00:48;;;;;;;16.08;9.48;;;15.00;99.90;;;;;;5020325;28;20290;-82
2022/10/25 08:03:16;;;;;;;14.45;9.38;;;15.00;99.90;;;;;;5021814;28;20209;-81
2022/10/25 08:05:45;;;;;;;16.50;9.95;;;15.10;99.90;;;;;;5020496;28;20702;-83
2022/10/25 08:08:13;;;;;;;16.65;9.88;;;15.20;99.90;;;;;;5021800;28;20292;-81
2022/10/25 08:10:43;;;;;;;18.25;9.98;;;15.20;99.90;;;;;;5022893;28;20789;-81
2022/10/25 08:13:10;;;;;;;13.50;9.35;;;15.30;99.90;;;;;;5023532;28;20222;-82
2022/10/25 08:15:39;;;;;;;16.27;9.23;;;15.10;99.90;;;;;;5021307;28;20215;-81
2022/10/25 08:18:08;;;;;;;19.27;9.65;;;15.20;99.90;;;;;;5021325;28;20249;-81
2022/10/25 08:20:35;;;;;;;13.77;8.27;;;15.30;99.90;;;;;;5019430;28;20252;-81
2022/10/25 08:23:24;;;;;;;12.55;9.02;;;15.40;99.90;;;;;;5019184;28;20232;-81
2022/10/25 08:25:51;;;;;;;15.52;8.55;;;15.40;99.90;;;;;;5022120;28;20217;-82
2022/10/25 08:28:18;;;;;;;15.60;9.15;;;15.50;99.90;;;;;;5022159;28;20198;-83
2022/10/25 08:30:45;;;;;;;17.67;8.30;;;15.50;99.90;;;;;;5023345;28;20720;-81
2022/10/25 08:33:12;;;;;;;16.00;8.70;;;15.60;99.90;;;;;;5017210;28;20587;-80
2022/10/25 08:35:39;;;;;;;13.68;7.97;;;15.60;99.90;;;;;;5022397;28;20226;-81
2022/10/25 08:38:06;;;;;;;14.73;8.15;;;15.80;99.90;;;;;;5018216;28;20282;-81
2022/10/25 08:40:47;;;;;;;11.40;7.75;;;15.80;99.90;;;;;;5025321;28;20213;-82
2022/10/25 08:43:26;;;;;;;14.23;7.85;;;15.90;99.90;;;;;;5022302;28;20670;-80
2022/10/25 08:46:02;;;;;;;13.73;7.95;;;15.90;99.90;;;;;;5020138;28;20220;-81
2022/10/25 08:48:53;;;;;;;14.25;7.88;;;15.90;99.90;;;;;;5008641;28;20244;-80
2022/10/25 08:51:34;;;;;;;14.40;8.05;;;15.90;99.90;;;;;;5018537;28;20206;-82
2022/10/25 08:54:10;;;;;;;14.30;7.20;;;15.90;99.90;;;;;;5019836;28;20304;-82
2022/10/25 08:56:38;;;;;;;18.40;8.43;;;15.80;99.90;;;;;;5018640;28;20548;-81
2022/10/25 08:59:27;;;;;;;15.25;7.72;;;15.80;99.90;;;;;;5020769;28;20993;-81
2022/10/25 09:01:58;;;;;;;13.20;7.50;;;15.80;99.90;;;;;;5021240;28;20816;-82
2022/10/25 09:04:25;;;;;;;12.23;7.00;;;15.80;99.90;;;;;;5021411;28;20299;-80
2022/10/25 09:07:04;;;;;;;14.52;7.53;;;15.80;99.90;;;;;;5021353;28;20619;-82
2022/10/25 09:09:44;;;;;;;10.23;6.82;;;15.80;99.90;;;;;;5016674;28;20207;-82
2022/10/25 09:12:16;;;;;;;9.50;6.28;;;15.80;99.90;;;;;;5022305;28;20247;-83
2022/10/25 09:14:52;;;;;;;10.95;6.65;;;15.80;99.90;;;;;;5021941;28;20312;-82
2022/10/25 09:17:22;;;;;;;11.73;6.55;;;15.90;99.90;;;;;;5019605;28;20685;-81
2022/10/25 09:20:04;;;;;;;11.98;6.60;;;15.80;99.90;;;;;;5020119;28;20217;-82
2022/10/25 09:22:48;;;;;;;10.27;6.65;;;15.90;99.90;;;;;;5021715;28;20214;-80
2022/10/25 09:25:39;;;;;;;8.63;5.88;;;15.90;99.90;;;;;;5019836;28;20225;-83
2022/10/25 09:28:13;;;;;;;10.75;6.40;;;15.90;99.90;;;;;;5002945;28;20642;-81
2022/10/25 09:30:42;;;;;;;11.85;8.43;;;15.90;99.90;;;;;;5024900;28;20303;-82
2022/10/25 09:33:12;;;;;;;14.55;7.50;;;16.10;99.90;;;;;;5021962;28;20325;-81
2022/10/25 09:35:52;;;;;;;11.13;7.03;;;16.10;99.90;;;;;;5026070;28;20229;-81
2022/10/25 09:38:45;;;;;;;14.48;7.47;;;16.20;99.90;;;;;;5023187;28;20305;-81
2022/10/25 09:41:21;;;;;;;11.23;7.07;;;16.20;99.90;;;;;;5027301;28;20210;-82
2022/10/25 09:43:59;;;;;;;12.43;7.45;;;16.50;99.90;;;;;;5025915;28;20221;-80
2022/10/25 09:46:33;;;;;;;13.02;7.07;;;16.20;99.90;;;;;;5014550;28;20213;-82
2022/10/25 09:49:09;;;;;;;14.35;7.13;;;16.20;99.90;;;;;;5022989;28;20281;-81
2022/10/25 09:52:15;;;;;;;12.32;7.22;;;16.20;99.90;;;;;;5030853;28;20210;-82
2022/10/25 09:55:12;;;;;;;9.00;6.82;;;16.30;99.90;;;;;;5030892;28;20473;-82
2022/10/25 09:57:40;;;;;;;12.85;8.07;;;16.40;99.90;;;;;;5010776;28;20742;-82
2022/10/25 10:00:12;;;;;;;11.82;7.05;;;16.40;99.90;;;;;;5031490;28;20231;-81
2022/10/25 10:02:40;;;;;;;12.07;7.82;;;16.30;99.90;;;;;;5029193;28;20222;-81
2022/10/25 10:05:19;;;;;;;15.40;8.23;;;16.20;99.90;;;;;;5033037;28;20242;-82
2022/10/25 10:07:48;;;;;;;11.98;8.10;;;16.20;99.90;;;;;;5035930;28;20545;-80
2022/10/25 10:10:22;;;;;;;10.82;7.85;;;16.20;99.90;;;;;;5030205;28;20253;-80
2022/10/25 10:12:58;;;;;;;12.07;7.05;;;16.20;99.90;;;;;;5032227;28;20315;-82
2022/10/25 10:15:43;;;;;;;10.07;6.03;;;17.00;99.90;;;;;;5024614;28;20210;-81
2022/10/25 10:18:21;;;;;;;17.45;6.75;;;16.30;99.90;;;;;;5029615;28;20283;-81
2022/10/25 10:21:11;;;;;;;8.35;6.53;;;16.30;99.90;;;;;;5029324;28;20288;-84
2022/10/25 10:23:41;;;;;;;8.50;6.05;;;16.30;99.90;;;;;;5031799;28;20214;-82
2022/10/25 10:26:19;;;;;;;14.63;6.85;;;16.20;99.90;;;;;;5033691;28;20205;-81
2022/10/25 10:28:53;;;;;;;12.73;7.63;;;16.20;99.90;;;;;;5033336;28;20194;-83
2022/10/25 10:31:21;;;;;;;11.93;7.47;;;16.20;99.90;;;;;;5030992;28;20218;-81
2022/10/25 10:33:50;;;;;;;13.02;6.28;;;16.20;99.90;;;;;;5030363;28;20210;-81
2022/10/25 10:36:26;;;;;;;10.30;6.47;;;16.20;99.90;;;;;;5017823;28;20210;-82
2022/10/25 10:39:18;;;;;;;14.00;7.18;;;16.20;99.90;;;;;;5018191;28;20216;-81
2022/10/25 10:42:02;;;;;;;11.35;7.90;;;16.20;99.90;;;;;;5027989;28;20245;-82
2022/10/25 10:44:33;;;;;;;14.95;8.02;;;16.20;99.90;;;;;;5029132;28;20402;-82
2022/10/25 10:47:08;;;;;;;12.25;7.55;;;16.30;99.90;;;;;;5030874;28;20544;-82
2022/10/25 10:49:39;;;;;;;12.88;7.93;;;16.40;99.90;;;;;;5019184;28;20332;-82
2022/10/25 10:52:32;;;;;;;10.90;7.30;;;16.80;99.90;;;;;;5031965;28;20213;-81
2022/10/25 10:54:59;;;;;;;10.63;6.85;;;16.70;99.90;;;;;;5036908;28;20210;-80
2022/10/25 10:57:32;;;;;;;15.32;7.10;;;16.90;99.90;;;;;;5027556;28;20660;-82
2022/10/25 11:00:01;;;;;;;13.95;8.05;;;17.00;99.90;;;;;;5035600;28;20279;-80
2022/10/25 11:02:41;;;;;;;10.88;7.13;;;17.10;99.90;;;;;;5015675;28;20266;-80
2022/10/25 11:05:33;;;;;;;12.48;7.13;;;17.20;99.90;;;;;;5028584;28;20288;-81
2022/10/25 11:08:17;;;;;;;13.82;7.22;;;17.20;99.90;;;;;;5015140;28;20237;-83
2022/10/25 11:10:43;;;;;;;10.43;7.53;;;17.10;99.90;;;;;;5029739;28;20206;-82
2022/10/25 11:13:24;;;;;;;14.50;8.20;;;17.10;99.90;;;;;;5030973;28;20284;-83
2022/10/25 11:16:07;;;;;;;10.05;7.10;;;17.00;99.90;;;;;;5029777;28;20209;-81
2022/10/25 11:18:41;;;;;;;11.52;6.43;;;17.00;99.90;;;;;;5031057;28;20237;-83
2022/10/25 11:21:33;;;;;;;11.77;7.05;;;17.00;99.90;;;;;;5033508;28;20205;-82
2022/10/25 11:24:12;;;;;;;12.82;6.30;;;17.00;99.90;;;;;;5028419;28;20271;-82
2022/10/25 11:26:42;;;;;;;8.77;6.32;;;16.90;99.90;;;;;;5028869;28;20677;-81
2022/10/25 11:29:42;;;;;;;11.35;6.03;;;16.80;99.90;;;;;;5030657;28;20480;-81
2022/10/25 11:32:48;;;;;;;8.23;6.00;;;16.80;99.90;;;;;;5021941;28;20213;-82
2022/10/25 11:35:39;;;;;;;10.77;5.63;;;16.90;99.90;;;;;;5029229;28;20229;-81
2022/10/25 11:38:18;;;;;;;11.73;6.30;;;16.90;99.90;;;;;;5024671;28;20210;-82
2022/10/25 11:41:05;;;;;;;7.07;5.53;;;17.10;99.90;;;;;;5029964;28;20202;-81
2022/10/25 11:44:01;;;;;;;7.50;5.53;;;17.20;99.90;;;;;;5030931;28;20271;-83
2022/10/25 11:46:47;;;;;;;8.07;5.80;;;18.00;99.90;;;;;;5013236;28;20210;-82
2022/10/25 11:49:36;;;;;;;12.88;6.00;;;17.50;99.90;;;;;;5030946;28;20218;-81
2022/10/25 11:52:06;;;;;;;9.45;5.75;;;17.70;99.90;;;;;;5029935;28;20210;-82
2022/10/25 11:54:54;;;;;;;9.30;6.22;;;17.80;99.90;;;;;;5028010;28;20201;-83
2022/10/25 11:57:21;;;;;;;9.93;5.82;;;18.00;99.90;;;;;;5024660;28;20752;-83
2022/10/25 12:00:00;;;;;;;12.30;6.70;;;18.10;99.90;;;;;;5026541;28;20211;-83
2022/10/25 12:02:53;;;;;;;12.18;5.72;;;18.30;99.90;;;;;;5024523;28;20197;-82
2022/10/25 12:05:55;;;;;;;10.10;5.20;;;18.50;99.90;;;;;;5014514;28;20264;-81
2022/10/25 12:08:37;;;;;;;9.20;5.38;;;18.60;99.90;;;;;;5026936;28;20209;-82
2022/10/25 12:11:09;;;;;;;14.27;6.82;;;18.70;99.90;;;;;;5028971;28;20277;-79
2022/10/25 12:13:47;;;;;;;8.68;5.97;;;18.70;99.90;;;;;;5028601;28;20668;-82
2022/10/25 12:16:17;;;;;;;10.80;6.57;;;18.70;99.90;;;;;;5027142;28;20740;-81
2022/10/25 12:18:51;;;;;;;11.23;6.60;;;18.50;99.90;;;;;;5024771;28;20612;-80
2022/10/25 12:21:22;;;;;;;11.70;6.25;;;18.40;99.90;;;;;;5020225;28;20257;-80
2022/10/25 12:23:52;;;;;;;10.50;6.50;;;18.30;99.90;;;;;;5009522;28;20209;-82
2022/10/25 12:26:29;;;;;;;7.88;5.60;;;18.30;99.90;;;;;;5007977;28;20295;-82
2022/10/25 12:29:02;;;;;;;8.60;5.65;;;18.40;99.90;;;;;;5025335;28;20234;-82
2022/10/25 12:31:39;;;;;;;10.27;6.13;;;18.40;99.90;;;;;;5025726;28;20313;-80
2022/10/25 12:34:21;;;;;;;11.60;6.40;;;18.50;99.90;;;;;;5027335;28;20332;-80
2022/10/25 12:36:55;;;;;;;9.75;5.50;;;18.70;99.90;;;;;;5028697;28;20214;-81
2022/10/25 12:39:34;;;;;;;11.65;6.85;;;18.80;99.90;;;;;;5027063;28;20204;-82
2022/10/25 12:42:06;;;;;;;11.30;7.22;;;19.00;99.90;;;;;;5013748;28;20213;-86
2022/10/25 12:45:01;;;;;;;14.45;6.68;;;19.00;99.90;;;;;;5025042;28;20258;-81
2022/10/25 12:47:46;;;;;;;9.90;6.07;;;19.10;99.90;;;;;;5009092;28;20611;-81
2022/10/25 12:50:25;;;;;;;10.43;6.18;;;19.00;99.90;;;;;;5022282;28;20283;-81
2022/10/25 12:53:47;;;;;;;10.40;5.88;;;18.90;99.90;;;;;;5020717;28;20249;-82
2022/10/25 12:56:39;;;;;;;10.43;5.30;;;18.80;99.90;;;;;;5022688;28;20719;-82
2022/10/25 12:59:37;;;;;;;7.53;5.15;;;18.60;99.90;;;;;;5024435;28;20246;-83
2022/10/25 13:02:32;;;;;;;9.85;5.00;;;18.50;99.90;;;;;;5023404;28;20292;-81
2022/10/25 13:05:29;;;;;;;8.40;5.65;;;18.40;99.90;;;;;;5007208;28;20233;-82